Time;durP1;ratioP1;P1;durP2;ratioP2;P2;SDS_P1;SDS_P2;PMS_P1;PMS_P2;Temp;Humidity;BMP_temperature;BMP_pressure;BME280_temperature;BME280_humidity;BME280_pressure;Samples;Min_cycle;Max_cycle;Signal;HPM_P1;HPM_P2
2023/06/22 00:01:23;;;;;;;11.73;8.25;;;;;;;23.54;50.09;100184.28;4993191;28;20050;-79
2023/06/22 00:03:50;;;;;;;8.85;7.85;;;;;;;23.52;49.90;100187.13;4975536;28;20526;-80
2023/06/22 00:06:17;;;;;;;9.35;8.30;;;;;;;23.50;50.48;100191.00;4974088;28;20073;-78
2023/06/22 00:08:44;;;;;;;10.55;8.55;;;;;;;23.48;50.24;100184.94;4973682;28;20393;-80
2023/06/22 00:11:11;;;;;;;10.48;8.10;;;;;;;23.45;50.39;100186.13;4973809;28;20058;-79
2023/06/22 00:13:38;;;;;;;9.95;8.48;;;;;;;23.41;50.23;100177.53;4969192;28;20510;-79
2023/06/22 00:18:37;;;;;;;9.93;8.03;;;;;;;23.36;50.38;100181.72;5030979;23;20128;-78
2023/06/22 00:21:04;;;;;;;11.10;8.45;;;;;;;23.33;50.59;100182.00;4991661;28;20508;-78
2023/06/22 00:23:34;;;;;;;8.40;7.38;;;;;;;23.30;50.65;100178.63;4964878;28;20086;-78
2023/06/22 00:26:02;;;;;;;11.02;8.30;;;;;;;23.28;50.63;100177.09;4985097;28;20054;-78
2023/06/22 00:28:29;;;;;;;10.20;8.10;;;;;;;23.26;50.59;100154.94;4974224;28;20667;-78
2023/06/22 00:30:55;;;;;;;11.75;8.48;;;;;;;23.25;50.99;100156.78;4972200;28;20097;-79
2023/06/22 00:33:22;;;;;;;8.35;7.18;;;;;;;23.22;50.97;100159.81;4976415;28;20085;-78
2023/06/22 00:35:52;;;;;;;15.23;9.25;;;;;;;23.20;50.48;100156.44;4991433;28;20054;-78
2023/06/22 00:38:19;;;;;;;10.13;8.85;;;;;;;23.18;50.97;100142.34;4990666;28;20497;-78
2023/06/22 00:40:46;;;;;;;13.18;8.82;;;;;;;23.17;50.77;100154.06;4991309;28;20327;-78
2023/06/22 00:43:12;;;;;;;15.23;8.45;;;;;;;23.13;50.66;100150.84;4972313;28;20058;-78
2023/06/22 00:45:38;;;;;;;11.45;8.82;;;;;;;23.10;50.79;100142.28;4972020;28;20057;-78
2023/06/22 00:48:07;;;;;;;12.30;8.90;;;;;;;23.05;51.21;100142.75;4971938;28;20065;-78
2023/06/22 00:50:33;;;;;;;11.15;9.00;;;;;;;23.04;51.25;100146.44;4971846;28;20110;-78
2023/06/22 00:53:10;;;;;;;9.60;8.43;;;;;;;22.99;51.74;100141.56;4971894;28;20062;-78
2023/06/22 00:55:43;;;;;;;10.80;9.27;;;;;;;23.00;51.32;100131.66;4989726;28;20065;-78
2023/06/22 00:58:12;;;;;;;12.35;9.05;;;;;;;22.99;51.46;100128.13;4991056;28;20426;-78
2023/06/22 01:00:42;;;;;;;12.38;9.40;;;;;;;22.96;51.88;100122.25;4990946;28;20493;-78
2023/06/22 01:03:08;;;;;;;9.25;8.30;;;;;;;22.97;51.25;100130.16;4990997;28;20139;-79
2023/06/22 01:05:37;;;;;;;10.30;8.75;;;;;;;22.94;51.42;100127.78;4958307;28;20429;-79
2023/06/22 01:08:26;;;;;;;12.10;9.85;;;;;;;22.91;51.40;100118.19;4971468;28;20054;-78
2023/06/22 01:11:04;;;;;;;11.23;9.02;;;;;;;22.91;51.40;100125.41;4971715;28;20058;-78
2023/06/22 01:13:54;;;;;;;11.00;8.98;;;;;;;22.83;51.70;100131.56;4971686;28;20050;-78
2023/06/22 01:16:26;;;;;;;10.88;9.40;;;;;;;22.85;51.65;100137.63;4988590;28;20062;-78
2023/06/22 01:18:57;;;;;;;10.00;8.95;;;;;;;22.82;51.85;100129.03;4989249;28;20054;-80
2023/06/22 01:21:27;;;;;;;10.95;9.40;;;;;;;22.81;51.84;100132.72;4973926;28;20165;-80
2023/06/22 01:23:58;;;;;;;10.48;9.35;;;;;;;22.77;52.19;100129.53;4990844;28;20054;-79
2023/06/22 01:26:41;;;;;;;12.00;9.98;;;;;;;22.73;52.37;100134.34;4974832;28;20138;-79
2023/06/22 01:29:12;;;;;;;12.00;9.85;;;;;;;22.73;52.09;100134.34;4971401;28;20063;-80
2023/06/22 01:31:40;;;;;;;10.45;9.45;;;;;;;22.72;51.48;100134.53;4971566;28;20066;-79
2023/06/22 01:34:08;;;;;;;12.45;8.88;;;;;;;22.68;51.70;100131.31;4971429;28;20062;-79
2023/06/22 01:36:35;;;;;;;10.77;9.15;;;;;;;22.67;51.55;100126.09;4984585;28;20050;-79
2023/06/22 01:39:04;;;;;;;13.35;9.40;;;;;;;22.63;51.75;100134.47;4989034;28;20062;-79
2023/06/22 01:41:37;;;;;;;11.38;10.00;;;;;;;22.58;52.64;100131.41;4990648;28;20109;-80
2023/06/22 01:44:08;;;;;;;14.07;9.90;;;;;;;22.56;52.14;100124.53;4973628;28;20054;-79
2023/06/22 01:46:36;;;;;;;12.82;9.43;;;;;;;22.55;51.86;100126.38;4979090;28;20058;-80
2023/06/22 01:49:04;;;;;;;12.52;9.25;;;;;;;22.53;52.25;100131.00;4987141;28;20058;-79
2023/06/22 01:51:30;;;;;;;11.55;9.07;;;;;;;22.50;52.21;100125.97;4976567;28;20055;-79
2023/06/22 01:53:57;;;;;;;11.07;8.93;;;;;;;22.48;52.05;100126.13;4974970;28;20058;-79
2023/06/22 01:56:23;;;;;;;13.10;10.15;;;;;;;22.47;52.36;100123.59;4981375;28;20708;-79
2023/06/22 01:58:59;;;;;;;11.40;9.75;;;;;;;22.44;52.87;100132.81;4993975;28;20116;-79
2023/06/22 02:01:35;;;;;;;11.10;9.60;;;;;;;22.41;52.71;100130.44;4994858;28;20063;-79
2023/06/22 02:04:13;;;;;;;10.45;9.25;;;;;;;22.36;52.73;100133.56;4977096;28;20058;-80
2023/06/22 02:06:45;;;;;;;11.07;9.40;;;;;;;22.37;52.71;100131.75;4993765;28;20062;-79
2023/06/22 02:09:16;;;;;;;12.02;9.73;;;;;;;22.34;52.59;100132.03;4994361;28;20054;-79
2023/06/22 02:11:45;;;;;;;11.63;9.07;;;;;;;22.32;52.63;100132.19;4994720;28;20515;-80
2023/06/22 02:14:13;;;;;;;11.35;9.80;;;;;;;22.32;52.63;100123.31;4994311;28;20054;-79
2023/06/22 02:16:41;;;;;;;11.55;9.85;;;;;;;22.30;52.57;100128.84;4993515;28;20505;-79
2023/06/22 02:19:08;;;;;;;11.30;10.10;;;;;;;22.28;52.71;100130.84;4993812;28;20060;-79
2023/06/22 02:21:34;;;;;;;12.50;9.88;;;;;;;22.26;52.67;100132.81;4994093;28;20070;-80
2023/06/22 02:24:01;;;;;;;15.40;9.93;;;;;;;22.23;52.61;100128.63;4994237;28;20054;-79
2023/06/22 02:26:27;;;;;;;11.98;9.35;;;;;;;22.19;52.69;100129.91;4992609;28;20072;-79
2023/06/22 02:28:54;;;;;;;12.38;9.95;;;;;;;22.16;52.63;100130.22;4993607;28;20501;-79
2023/06/22 02:31:20;;;;;;;11.65;10.18;;;;;;;22.13;52.71;100128.69;4993878;28;20058;-79
2023/06/22 02:33:48;;;;;;;11.00;9.85;;;;;;;22.10;53.00;100128.16;4976435;28;20501;-79
2023/06/22 02:36:14;;;;;;;10.93;9.32;;;;;;;22.05;53.06;100127.78;4993434;28;20473;-79
2023/06/22 02:38:47;;;;;;;11.98;9.70;;;;;;;22.03;53.15;100125.25;4993528;28;20089;-80
2023/06/22 02:41:17;;;;;;;;;;;;;;;22.00;52.24;100125.56;4976923;28;20054;-79
2023/06/22 02:43:47;;;;;;;12.63;9.35;;;;;;;22.02;52.94;100120.91;4994103;28;19922;-79
2023/06/22 02:46:14;;;;;;;12.77;9.88;;;;;;;21.99;53.02;100124.72;4993179;28;20047;-79
2023/06/22 02:48:40;;;;;;;12.90;10.18;;;;;;;21.96;53.07;100124.19;4976128;28;20058;-79
2023/06/22 02:51:07;;;;;;;12.82;10.73;;;;;;;21.93;53.24;100143.25;4993566;28;20054;-79
2023/06/22 02:53:34;;;;;;;13.32;10.18;;;;;;;21.91;53.34;100129.16;4993327;28;20539;-79
2023/06/22 02:56:05;;;;;;;11.63;10.35;;;;;;;21.88;53.54;100141.03;4993201;28;20060;-79
2023/06/22 02:58:38;;;;;;;13.07;10.85;;;;;;;21.86;53.42;100140.31;4992780;28;20535;-79
2023/06/22 03:01:07;;;;;;;;;;;;;;;21.85;52.33;100138.66;4975232;28;20050;-79
2023/06/22 03:03:34;;;;;;;11.98;9.50;;;;;;;21.87;52.95;100134.00;4993378;28;19929;-79
2023/06/22 03:06:00;;;;;;;11.38;10.20;;;;;;;21.85;53.13;100134.16;4993359;28;20109;-79
2023/06/22 03:08:28;;;;;;;11.80;10.52;;;;;;;21.81;53.43;100134.59;4993215;28;20124;-79
2023/06/22 03:10:55;;;;;;;16.50;10.43;;;;;;;21.80;53.63;100127.56;4993221;28;20084;-79
2023/06/22 03:13:22;;;;;;;12.05;10.40;;;;;;;21.78;53.71;100132.19;4992714;28;20054;-79
2023/06/22 03:15:48;;;;;;;12.77;10.45;;;;;;;21.74;53.65;100129.84;4992928;28;20070;-79
2023/06/22 03:18:15;;;;;;;12.30;10.82;;;;;;;21.73;53.87;100124.63;4992725;28;20058;-79
2023/06/22 03:20:42;;;;;;;12.73;10.50;;;;;;;21.71;53.88;100127.44;4992976;28;20085;-79
2023/06/22 03:23:08;;;;;;;11.52;10.32;;;;;;;21.70;54.23;100128.44;4975725;28;20058;-79
2023/06/22 03:25:35;;;;;;;13.88;10.57;;;;;;;21.69;54.27;100131.25;4993011;28;20054;-80
2023/06/22 03:28:01;;;;;;;14.05;9.88;;;;;;;21.68;53.92;100134.94;4975455;28;20141;-79
2023/06/22 03:30:28;;;;;;;11.73;10.52;;;;;;;21.67;54.25;100135.91;4992971;28;20064;-79
2023/06/22 03:32:55;;;;;;;13.40;10.55;;;;;;;21.66;54.39;100131.56;4992843;28;20054;-79
2023/06/22 03:35:22;;;;;;;15.13;11.25;;;;;;;21.64;54.41;100123.66;4992592;28;20677;-79
2023/06/22 03:37:49;;;;;;;15.35;11.00;;;;;;;21.66;54.36;100127.06;4975086;28;20527;-80
2023/06/22 03:40:15;;;;;;;12.82;11.32;;;;;;;21.66;54.42;100127.06;4992763;28;20432;-80
2023/06/22 03:42:42;;;;;;;14.00;11.57;;;;;;;21.66;54.50;100127.06;4992391;28;20137;-80
2023/06/22 03:45:09;;;;;;;12.65;10.95;;;;;;;21.67;54.45;100126.06;4992679;28;20425;-79
2023/06/22 03:47:35;;;;;;;14.02;10.88;;;;;;;21.68;54.41;100127.72;4992682;28;20050;-79
2023/06/22 03:50:03;;;;;;;12.63;10.82;;;;;;;21.67;54.44;100126.06;4992625;28;20054;-79
2023/06/22 03:52:30;;;;;;;11.63;10.30;;;;;;;21.68;54.38;100121.53;4992290;28;20576;-79
2023/06/22 03:54:56;;;;;;;12.52;10.82;;;;;;;21.68;54.54;100121.53;4992273;28;20061;-79
2023/06/22 03:57:23;;;;;;;12.52;10.85;;;;;;;21.68;54.78;100114.34;4992266;28;20061;-80
2023/06/22 03:59:49;;;;;;;13.20;10.27;;;;;;;21.69;54.64;100124.06;4992486;28;20056;-79
2023/06/22 04:02:16;;;;;;;12.10;10.20;;;;;;;21.70;54.65;100119.53;4992118;28;20133;-79
2023/06/22 04:04:42;;;;;;;13.57;11.15;;;;;;;21.71;54.73;100123.91;4992135;28;20081;-79
2023/06/22 04:07:09;;;;;;;12.32;10.50;;;;;;;21.73;54.55;100119.28;4991873;28;20081;-79
2023/06/22 04:09:35;;;;;;;11.60;10.38;;;;;;;21.72;54.60;100120.25;4992167;28;20058;-79
2023/06/22 04:12:02;;;;;;;11.40;10.18;;;;;;;21.70;54.41;100117.72;4992146;28;20059;-79
2023/06/22 04:14:28;;;;;;;11.93;10.10;;;;;;;21.71;54.45;100127.44;4991986;28;20108;-79
2023/06/22 04:16:55;;;;;;;12.10;10.30;;;;;;;21.71;54.46;100122.06;4991767;28;20145;-79
2023/06/22 04:19:21;;;;;;;11.05;9.85;;;;;;;21.70;54.36;100123.06;4974776;28;20058;-79
2023/06/22 04:21:48;;;;;;;12.40;10.35;;;;;;;21.69;54.37;100124.06;4992159;28;20066;-80
2023/06/22 04:24:15;;;;;;;12.75;10.23;;;;;;;21.67;54.58;100123.38;4991500;28;20046;-79
2023/06/22 04:26:46;;;;;;;11.55;9.55;;;;;;;21.65;54.59;100120.00;4974478;28;20050;-80
2023/06/22 04:29:13;;;;;;;13.20;10.25;;;;;;;21.64;54.71;100109.44;4992090;28;20173;-79
2023/06/22 04:31:39;;;;;;;11.98;9.93;;;;;;;21.63;54.52;100113.13;4991850;28;20054;-79
2023/06/22 04:34:07;;;;;;;12.07;10.35;;;;;;;21.60;54.72;100112.41;4991406;28;20049;-79
2023/06/22 04:36:37;;;;;;;15.38;10.88;;;;;;;21.60;54.94;100108.88;4991378;28;20428;-79
2023/06/22 04:39:11;;;;;;;14.25;11.18;;;;;;;21.58;55.68;100110.88;4979911;28;20117;-80
2023/06/22 04:41:44;;;;;;;12.02;10.07;;;;;;;21.64;55.13;100117.47;4972392;28;20050;-80
2023/06/22 04:44:12;;;;;;;14.57;11.63;;;;;;;21.67;55.19;100115.34;4972120;28;20426;-79
2023/06/22 04:46:40;;;;;;;10.95;9.82;;;;;;;21.70;55.05;100117.72;4990599;28;20050;-79
2023/06/22 04:49:09;;;;;;;14.60;10.85;;;;;;;21.73;55.41;100122.81;4991243;28;20061;-79
2023/06/22 04:51:41;;;;;;;12.43;10.15;;;;;;;21.77;55.29;100119.81;4974306;28;20152;-79
2023/06/22 04:54:09;;;;;;;13.13;10.88;;;;;;;21.81;54.96;100108.66;4991452;28;20054;-79
2023/06/22 04:56:35;;;;;;;13.23;11.15;;;;;;;21.84;54.74;100110.19;4990729;28;20054;-79
2023/06/22 04:59:03;;;;;;;13.20;10.73;;;;;;;21.85;54.74;100110.03;4991419;28;20058;-79
2023/06/22 05:01:32;;;;;;;13.27;10.65;;;;;;;21.88;54.63;100108.88;4990759;28;20447;-79
2023/06/22 05:04:00;;;;;;;12.40;10.85;;;;;;;21.90;55.11;100106.88;4991424;28;20141;-79
2023/06/22 05:06:28;;;;;;;12.63;11.00;;;;;;;21.92;54.81;100099.53;4991097;28;20100;-79
2023/06/22 05:08:58;;;;;;;12.18;10.85;;;;;;;21.94;54.81;100100.22;4991244;28;20061;-79
2023/06/22 05:11:28;;;;;;;13.07;10.70;;;;;;;21.96;54.73;100097.38;4990864;28;20146;-79
2023/06/22 05:13:55;;;;;;;12.65;10.00;;;;;;;21.99;54.78;100100.59;4991074;28;20058;-79
2023/06/22 05:16:25;;;;;;;13.05;11.25;;;;;;;22.02;54.86;100095.94;4990634;28;20061;-79
2023/06/22 05:18:54;;;;;;;15.13;10.73;;;;;;;22.07;54.99;100099.84;4990799;28;20054;-79
2023/06/22 05:21:26;;;;;;;13.93;11.30;;;;;;;22.12;55.07;100094.00;4973444;28;20425;-79
2023/06/22 05:23:59;;;;;;;12.70;10.80;;;;;;;22.16;55.28;100091.88;4990357;28;20078;-80
2023/06/22 05:26:27;;;;;;;12.20;10.55;;;;;;;22.24;54.76;100094.63;4990500;28;20062;-79
2023/06/22 05:28:53;;;;;;;13.98;10.63;;;;;;;22.30;54.96;100096.66;4973587;28;20054;-79
2023/06/22 05:31:20;;;;;;;13.68;10.50;;;;;;;22.34;54.76;100092.66;4990928;28;20050;-79
2023/06/22 05:33:48;;;;;;;13.60;10.68;;;;;;;22.38;54.60;100103.91;4990847;28;20058;-79
2023/06/22 05:36:15;;;;;;;14.40;11.02;;;;;;;22.43;54.59;100101.59;4973054;28;20046;-80
2023/06/22 05:38:41;;;;;;;11.88;10.57;;;;;;;22.47;54.08;100100.28;4987913;28;20133;-79
2023/06/22 05:41:08;;;;;;;11.60;10.38;;;;;;;22.51;54.21;100098.16;4990865;28;20146;-79
2023/06/22 05:43:34;;;;;;;12.07;10.48;;;;;;;22.52;54.12;100091.78;4990806;28;20054;-80
2023/06/22 05:46:02;;;;;;;12.45;10.82;;;;;;;22.54;54.28;100092.44;4974087;28;20398;-79
2023/06/22 05:48:28;;;;;;;11.52;10.40;;;;;;;22.55;54.40;100098.69;4976908;28;20069;-79
2023/06/22 05:50:54;;;;;;;11.25;9.63;;;;;;;22.54;54.21;100100.50;4970243;28;20125;-80
2023/06/22 05:53:21;;;;;;;12.60;10.40;;;;;;;22.55;54.00;100090.66;4971057;28;20154;-80
2023/06/22 05:55:48;;;;;;;13.50;10.95;;;;;;;22.56;54.25;100101.22;4971733;28;20054;-80
2023/06/22 05:58:14;;;;;;;11.65;10.45;;;;;;;22.59;54.34;100092.88;4975717;28;20513;-80
2023/06/22 06:00:42;;;;;;;11.82;10.52;;;;;;;22.61;54.15;100096.22;4983964;28;20137;-79
2023/06/22 06:03:09;;;;;;;13.23;10.38;;;;;;;22.65;54.20;100091.38;4973969;28;20062;-79
2023/06/22 06:05:38;;;;;;;11.20;9.82;;;;;;;22.69;54.11;100089.22;4991018;28;20058;-80
2023/06/22 06:08:06;;;;;;;11.65;9.80;;;;;;;22.72;54.08;100086.25;4990739;28;20058;-80
2023/06/22 06:10:33;;;;;;;11.35;10.15;;;;;;;22.77;53.94;100086.59;4990500;28;20055;-80
2023/06/22 06:13:02;;;;;;;12.80;9.52;;;;;;;22.82;54.39;100097.69;4990440;28;20059;-80
2023/06/22 06:15:28;;;;;;;11.38;10.18;;;;;;;22.88;54.25;100091.66;4973733;28;20054;-80
2023/06/22 06:20:27;;;;;;;15.00;10.52;;;;;;;22.96;54.48;100100.78;4950193;28;20058;-78
2023/06/22 06:22:55;;;;;;;10.88;9.77;;;;;;;23.00;54.41;100094.09;4951912;28;20073;-78
2023/06/22 06:25:22;;;;;;;11.88;9.23;;;;;;;23.03;54.21;100091.91;4934333;28;20537;-78
2023/06/22 06:27:50;;;;;;;10.75;9.63;;;;;;;23.10;54.45;100099.34;4951985;28;20344;-78
2023/06/22 06:30:18;;;;;;;10.40;9.15;;;;;;;23.16;54.49;100096.00;4951606;28;20052;-78
2023/06/22 06:32:46;;;;;;;10.65;8.80;;;;;;;23.22;54.45;100094.50;4952183;28;20466;-77
2023/06/22 06:35:14;;;;;;;11.70;9.80;;;;;;;23.28;54.55;100099.22;4951644;28;20477;-78
2023/06/22 06:37:44;;;;;;;11.35;9.00;;;;;;;23.36;54.69;100101.97;4954918;28;20247;-78
2023/06/22 06:40:12;;;;;;;11.60;9.38;;;;;;;23.45;54.09;100099.31;4955486;28;20055;-78
2023/06/22 06:42:45;;;;;;;9.63;8.43;;;;;;;23.52;54.32;100098.47;4955793;28;20065;-78
2023/06/22 06:45:13;;;;;;;11.57;9.68;;;;;;;23.63;54.20;100097.31;4939147;28;20055;-78
2023/06/22 06:47:39;;;;;;;11.77;9.65;;;;;;;23.73;54.27;100096.34;4938479;28;20574;-78
2023/06/22 06:50:07;;;;;;;10.65;8.80;;;;;;;23.81;54.10;100094.50;4954536;28;20055;-78
2023/06/22 06:52:34;;;;;;;11.60;8.73;;;;;;;23.92;53.78;100089.81;4938570;28;20059;-78
2023/06/22 06:55:05;;;;;;;9.55;8.55;;;;;;;24.01;53.59;100094.19;4955162;28;20059;-78
2023/06/22 06:57:33;;;;;;;10.05;8.40;;;;;;;24.11;53.78;100094.03;4938144;28;20051;-78
2023/06/22 07:00:00;;;;;;;10.38;8.73;;;;;;;24.22;53.40;100097.41;4937952;28;20114;-78
2023/06/22 07:02:27;;;;;;;10.23;8.85;;;;;;;24.29;52.97;100093.88;4954848;28;20074;-78
2023/06/22 07:04:57;;;;;;;9.32;8.27;;;;;;;24.36;52.80;100102.09;4954950;28;20055;-78
2023/06/22 07:07:23;;;;;;;11.00;8.90;;;;;;;24.44;53.00;100094.03;4954658;28;20047;-78
2023/06/22 07:09:50;;;;;;;10.10;8.95;;;;;;;24.53;52.69;100094.88;4953537;28;20498;-79
2023/06/22 07:12:16;;;;;;;11.80;9.05;;;;;;;24.59;52.73;100088.78;4955041;28;20457;-79
2023/06/22 07:14:43;;;;;;;11.38;8.82;;;;;;;24.67;52.38;100098.69;4954648;28;20051;-79
2023/06/22 07:17:09;;;;;;;9.18;8.20;;;;;;;24.75;52.33;100100.53;4954608;28;20087;-78
2023/06/22 07:19:36;;;;;;;9.55;8.52;;;;;;;24.84;52.54;100104.06;4955120;28;20133;-79
2023/06/22 07:22:03;;;;;;;9.88;8.20;;;;;;;24.92;52.11;100100.47;4954781;28;20125;-79
2023/06/22 07:24:29;;;;;;;9.43;8.43;;;;;;;24.98;52.00;100089.03;4955097;28;20109;-78
2023/06/22 07:26:58;;;;;;;10.27;8.27;;;;;;;25.05;52.35;100084.63;4954707;29;20130;-79
2023/06/22 07:29:26;;;;;;;10.82;8.68;;;;;;;25.12;52.08;100079.41;4955196;28;20481;-78
2023/06/22 07:31:53;;;;;;;9.27;7.85;;;;;;;25.19;52.37;100087.59;4954580;28;20091;-79
2023/06/22 07:34:20;;;;;;;9.05;8.10;;;;;;;25.26;52.11;100077.78;4954847;28;20055;-78
2023/06/22 07:36:47;;;;;;;8.93;7.97;;;;;;;25.35;51.98;100078.59;4953493;28;20059;-79
2023/06/22 07:39:14;;;;;;;8.73;7.45;;;;;;;25.42;51.92;100068.75;4954627;28;20455;-79
2023/06/22 07:41:41;;;;;;;8.82;7.93;;;;;;;25.52;52.30;100067.72;4937556;29;20138;-78
2023/06/22 07:44:07;;;;;;;8.68;7.75;;;;;;;25.60;52.09;100073.91;4954919;28;20055;-78
2023/06/22 07:46:34;;;;;;;8.32;7.53;;;;;;;25.69;51.46;100068.47;4954085;28;20565;-78
2023/06/22 07:49:01;;;;;;;9.32;7.93;;;;;;;25.78;51.46;100072.78;4954404;28;20520;-78
2023/06/22 07:51:28;;;;;;;8.68;7.72;;;;;;;25.84;51.12;100060.44;4954780;28;20138;-78
2023/06/22 07:53:54;;;;;;;7.90;7.13;;;;;;;25.89;50.91;100058.88;4954221;28;20411;-78
2023/06/22 07:56:21;;;;;;;10.15;7.82;;;;;;;25.97;51.00;100070.59;4954389;28;20425;-78
2023/06/22 07:58:47;;;;;;;10.32;7.55;;;;;;;26.00;50.94;100064.84;4937161;29;20056;-78
2023/06/22 08:01:15;;;;;;;9.95;8.30;;;;;;;26.04;51.11;100068.03;4954251;28;20055;-78
2023/06/22 08:03:41;;;;;;;8.95;8.02;;;;;;;26.07;50.93;100057.72;4954041;28;20051;-79
2023/06/22 08:06:09;;;;;;;12.02;8.10;;;;;;;26.10;50.62;100056.50;4953892;28;20101;-78
2023/06/22 08:08:36;;;;;;;7.90;7.05;;;;;;;26.13;50.74;100065.06;4954224;28;20089;-79
2023/06/22 08:11:02;;;;;;;9.18;7.47;;;;;;;26.15;50.44;100057.66;4954108;28;20518;-78
2023/06/22 08:13:29;;;;;;;9.85;7.88;;;;;;;26.16;50.69;100058.47;4953884;28;20127;-79
2023/06/22 08:15:55;;;;;;;9.05;7.32;;;;;;;26.16;50.25;100058.47;4936891;29;20055;-78
2023/06/22 08:18:22;;;;;;;12.90;8.38;;;;;;;26.16;50.21;100058.47;4953449;28;20494;-79
2023/06/22 08:20:49;;;;;;;7.72;6.93;;;;;;;26.15;50.38;100049.56;4953921;29;20055;-78
2023/06/22 08:23:15;;;;;;;8.20;7.20;;;;;;;26.17;50.19;100053.91;4953741;28;20565;-78
2023/06/22 08:25:42;;;;;;;8.80;7.90;;;;;;;26.19;50.67;100063.50;4953738;28;20062;-78
2023/06/22 08:28:09;;;;;;;8.27;7.47;;;;;;;26.22;50.12;100062.28;4953568;29;20462;-79
2023/06/22 08:30:35;;;;;;;8.48;7.60;;;;;;;26.24;50.24;100052.19;4953593;28;20055;-78
2023/06/22 08:33:02;;;;;;;8.68;7.57;;;;;;;26.28;50.03;100058.91;4953635;28;20062;-79
2023/06/22 08:35:30;;;;;;;9.05;7.90;;;;;;;26.29;49.72;100052.47;4934351;29;20056;-79
2023/06/22 08:37:59;;;;;;;8.75;7.93;;;;;;;26.33;49.85;100053.78;4934230;29;20400;-79
2023/06/22 08:40:25;;;;;;;9.30;7.93;;;;;;;26.35;49.86;100054.44;4933339;29;20059;-79
2023/06/22 08:42:52;;;;;;;8.27;7.38;;;;;;;26.38;49.75;100054.06;4934497;29;20135;-78
2023/06/22 08:45:19;;;;;;;9.23;8.02;;;;;;;26.43;49.65;100058.09;4949666;29;20089;-78
2023/06/22 08:47:45;;;;;;;9.45;8.10;;;;;;;26.45;50.13;100051.47;4953282;28;20058;-78
2023/06/22 08:50:12;;;;;;;10.40;7.20;;;;;;;26.49;49.94;100057.31;4953342;28;20066;-78
2023/06/22 08:52:43;;;;;;;11.68;8.23;;;;;;;26.53;49.43;100056.78;4936417;29;20469;-78
2023/06/22 08:55:10;;;;;;;10.27;9.27;;;;;;;26.57;49.85;100043.75;4953495;28;20577;-78
2023/06/22 08:57:38;;;;;;;10.75;8.48;;;;;;;26.61;49.59;100044.22;4952627;28;20062;-78
2023/06/22 09:00:15;;;;;;;9.75;8.30;;;;;;;26.61;49.55;100036.94;4953110;28;20154;-78
2023/06/22 09:02:42;;;;;;;10.55;9.10;;;;;;;26.66;49.17;100036.41;4953360;29;20059;-78
2023/06/22 09:05:09;;;;;;;11.10;9.20;;;;;;;26.68;49.36;100028.94;4952832;28;20055;-78
2023/06/22 09:07:36;;;;;;;10.02;8.93;;;;;;;26.69;49.04;100019.00;4952848;28;20541;-78
2023/06/22 09:10:06;;;;;;;12.45;8.38;;;;;;;26.69;49.39;100017.13;4953023;28;20115;-79
2023/06/22 09:12:33;;;;;;;12.27;9.00;;;;;;;26.69;49.49;100010.88;4952983;28;20122;-79
2023/06/22 09:15:00;;;;;;;10.63;9.52;;;;;;;26.69;49.54;100013.59;4952832;28;20058;-79
2023/06/22 09:17:27;;;;;;;10.77;9.63;;;;;;;26.70;49.68;100002.59;4952540;28;20066;-79
2023/06/22 09:19:54;;;;;;;12.55;9.90;;;;;;;26.72;49.51;100005.94;4951630;28;20063;-79
2023/06/22 09:22:20;;;;;;;11.68;10.18;;;;;;;26.74;49.31;99998.50;4953497;29;20077;-79
2023/06/22 09:24:47;;;;;;;12.85;9.80;;;;;;;26.77;49.37;99994.59;4952810;29;20147;-79
2023/06/22 09:27:13;;;;;;;12.90;10.25;;;;;;;26.82;49.40;99992.16;4952713;29;20113;-79
2023/06/22 09:29:40;;;;;;;11.95;8.68;;;;;;;26.87;49.72;100005.09;4952921;28;20063;-78
2023/06/22 09:32:07;;;;;;;11.13;9.73;;;;;;;26.92;49.39;100008.06;4952830;28;20055;-79
2023/06/22 09:34:33;;;;;;;9.85;8.98;;;;;;;26.96;49.00;99998.59;4936218;29;20055;-79
2023/06/22 09:37:00;;;;;;;10.45;9.45;;;;;;;27.01;49.13;100001.56;4952479;28;20102;-79
2023/06/22 09:39:27;;;;;;;10.63;9.52;;;;;;;27.06;49.08;100003.69;4952792;28;20055;-79
2023/06/22 09:41:53;;;;;;;11.73;9.57;;;;;;;27.12;48.95;100007.47;4936069;29;20059;-79
2023/06/22 09:44:20;;;;;;;11.05;9.65;;;;;;;27.16;49.00;100009.63;4953203;28;20482;-79
2023/06/22 09:46:46;;;;;;;10.50;9.40;;;;;;;27.23;48.63;100003.44;4953112;28;20141;-79
2023/06/22 09:49:13;;;;;;;11.40;9.52;;;;;;;27.28;49.19;99991.03;4953024;28;20071;-79
2023/06/22 09:51:39;;;;;;;12.23;9.90;;;;;;;27.36;49.17;100003.56;4952803;28;20055;-79
2023/06/22 09:54:06;;;;;;;11.73;9.55;;;;;;;27.44;48.99;99999.94;4936851;29;20147;-79
2023/06/22 09:56:32;;;;;;;11.27;9.73;;;;;;;27.52;48.36;100002.50;4951601;28;20059;-79
2023/06/22 09:58:59;;;;;;;13.50;9.70;;;;;;;27.59;48.48;100007.97;4953066;28;20051;-79
2023/06/22 10:01:43;;;;;;;10.45;9.23;;;;;;;27.66;48.01;100005.34;4953232;29;20261;-79
2023/06/22 10:04:09;;;;;;;14.15;9.65;;;;;;;27.71;47.89;99994.78;4952989;28;20065;-79
2023/06/22 10:06:40;;;;;;;12.15;9.38;;;;;;;27.76;47.76;99995.03;4936119;29;20071;-79
2023/06/22 10:09:08;;;;;;;11.10;9.63;;;;;;;27.82;47.99;99996.97;4952839;28;20055;-79
2023/06/22 10:11:34;;;;;;;10.07;8.60;;;;;;;27.88;47.65;99989.09;4957310;28;20046;-79
2023/06/22 10:14:02;;;;;;;10.48;9.43;;;;;;;27.93;47.50;99986.63;4958565;28;20075;-79
2023/06/22 10:16:32;;;;;;;11.95;9.85;;;;;;;27.94;47.01;99983.72;4940321;29;20062;-79
2023/06/22 10:18:59;;;;;;;10.10;9.07;;;;;;;28.01;47.55;99981.06;4956455;28;20133;-78
2023/06/22 10:21:28;;;;;;;10.38;9.38;;;;;;;28.05;47.29;99981.50;4956762;28;20138;-79
2023/06/22 10:23:55;;;;;;;10.35;8.93;;;;;;;28.11;47.69;99983.44;4956529;28;20090;-79
2023/06/22 10:26:22;;;;;;;10.30;9.30;;;;;;;28.17;47.78;99982.63;4939470;29;20066;-79
2023/06/22 10:28:48;;;;;;;9.80;8.85;;;;;;;28.25;47.34;99980.81;4939064;29;20146;-79
2023/06/22 10:31:19;;;;;;;14.23;9.18;;;;;;;28.33;47.56;99975.28;4955180;29;20062;-79
2023/06/22 10:33:45;;;;;;;10.27;8.90;;;;;;;28.45;47.59;99975.53;4956583;28;20071;-79
2023/06/22 10:36:12;;;;;;;14.85;9.23;;;;;;;28.56;47.28;99968.72;4956638;28;20498;-79
2023/06/22 10:38:38;;;;;;;15.68;9.27;;;;;;;28.66;47.05;99969.16;4959322;28;20098;-79
2023/06/22 10:41:05;;;;;;;12.05;8.65;;;;;;;28.72;46.69;99965.66;4956391;29;20058;-79
2023/06/22 10:43:31;;;;;;;11.63;9.52;;;;;;;28.79;46.34;99965.69;4939371;29;20059;-78
2023/06/22 10:45:58;;;;;;;11.43;9.82;;;;;;;28.84;46.09;99970.47;4955497;28;20055;-79
2023/06/22 10:48:25;;;;;;;10.80;9.63;;;;;;;28.84;45.63;99971.31;4939447;29;20055;-79
2023/06/22 10:50:53;;;;;;;10.52;9.52;;;;;;;28.83;45.81;99975.06;4938541;29;20110;-79
2023/06/22 10:53:19;;;;;;;11.60;9.02;;;;;;;28.81;46.04;99976.31;4957345;28;20122;-79
2023/06/22 10:55:46;;;;;;;9.85;8.82;;;;;;;28.74;45.29;99971.69;4958081;28;20061;-79
2023/06/22 10:58:22;;;;;;;10.15;9.10;;;;;;;28.67;45.75;99973.53;4956337;29;20055;-79
2023/06/22 11:00:48;;;;;;;9.27;8.38;;;;;;;28.60;45.47;99969.97;4956481;28;20142;-79
2023/06/22 11:03:15;;;;;;;9.50;8.50;;;;;;;28.52;45.89;99973.69;4956387;28;20134;-79
2023/06/22 11:05:41;;;;;;;11.25;9.23;;;;;;;28.46;45.40;99971.78;4939018;29;20089;-79
2023/06/22 11:08:08;;;;;;;10.48;9.48;;;;;;;28.41;45.53;99966.97;4939212;29;20142;-82
2023/06/22 11:10:35;;;;;;;9.85;8.60;;;;;;;28.37;46.07;99960.31;4955690;28;20110;-81
2023/06/22 11:13:04;;;;;;;9.48;8.48;;;;;;;28.33;46.25;99954.44;4939593;29;20059;-81
2023/06/22 11:15:31;;;;;;;9.52;8.57;;;;;;;28.31;46.22;99934.03;4956543;28;20113;-81
2023/06/22 11:17:58;;;;;;;10.23;9.00;;;;;;;28.31;46.01;99942.97;4938627;29;20145;-82
2023/06/22 11:20:24;;;;;;;9.98;9.05;;;;;;;28.32;46.18;99935.69;4939528;29;20474;-79
2023/06/22 11:22:51;;;;;;;12.05;9.63;;;;;;;28.34;46.16;99949.88;4954305;28;20170;-79
2023/06/22 11:25:17;;;;;;;10.57;9.48;;;;;;;28.36;46.14;99939.66;4953934;28;20474;-79
2023/06/22 11:27:44;;;;;;;9.63;8.63;;;;;;;28.37;46.02;99932.38;4937682;29;20059;-79